createdAt,value
2022-09-01T04:45:56.277Z,2.10
2022-09-01T04:46:56.213Z,2.20
2022-09-01T04:47:56.203Z,2.30
2022-09-01T04:48:56.424Z,2.60
2022-09-01T04:49:56.154Z,2.30
2022-09-01T04:50:56.145Z,2.50
2022-09-01T04:51:56.126Z,2.50
2022-09-01T04:52:56.155Z,2.30
2022-09-01T04:54:00.031Z,3.30
2022-09-01T04:54:56.109Z,2.60
2022-09-01T04:55:56.092Z,2.20
2022-09-01T04:56:56.065Z,2.50
2022-09-01T04:57:56.066Z,2.40
2022-09-01T04:58:56.035Z,2.40
2022-09-01T04:59:56.015Z,2.50
2022-09-01T05:00:56.303Z,2.40
2022-09-01T05:01:56.035Z,2.50
2022-09-01T05:02:56.006Z,2.50
2022-09-01T05:03:55.967Z,2.60
2022-09-01T05:05:00.003Z,2.50
2022-09-01T05:05:55.939Z,2.40
2022-09-01T05:06:55.968Z,2.30
2022-09-01T05:07:55.952Z,3.10
2022-09-01T05:08:55.897Z,2.90
2022-09-01T05:10:00.590Z,3.30
2022-09-01T05:10:57.173Z,2.60
2022-09-01T05:11:55.957Z,2.80
2022-09-01T05:12:55.869Z,2.90
2022-09-01T05:13:59.638Z,2.70
2022-09-01T05:14:55.931Z,2.70
2022-09-01T05:15:55.865Z,2.50
2022-09-01T05:16:55.861Z,3.10
2022-09-01T05:17:55.781Z,2.50
2022-09-01T05:18:55.838Z,2.80
2022-09-01T05:19:55.748Z,2.60
2022-09-01T05:21:16.769Z,2.70
2022-09-01T05:21:55.759Z,2.70
2022-09-01T05:22:55.709Z,2.60
2022-09-01T05:23:55.713Z,2.50
2022-09-01T05:24:55.760Z,2.60
2022-09-01T05:25:55.674Z,2.50
2022-09-01T05:26:55.741Z,2.60
2022-09-01T05:27:55.682Z,2.60
2022-09-01T05:28:55.657Z,3.00
2022-09-01T05:29:55.611Z,2.80
2022-09-01T05:30:55.690Z,2.90
2022-09-01T05:32:16.603Z,3.10
2022-09-01T05:32:55.572Z,2.70
2022-09-01T05:33:55.556Z,2.60
2022-09-01T05:34:55.666Z,2.60
2022-09-01T05:35:55.565Z,2.80
2022-09-01T05:36:55.613Z,2.70
2022-09-01T05:37:55.514Z,2.50
2022-09-01T05:38:55.493Z,2.60
2022-09-01T05:39:55.493Z,2.70
2022-09-01T05:40:55.463Z,2.60
2022-09-01T05:41:55.492Z,2.90
2022-09-01T05:43:16.435Z,2.70
2022-09-01T05:44:00.294Z,4.50
2022-09-01T05:44:56.421Z,3.10
2022-09-01T05:46:06.156Z,2.80
2022-09-01T05:46:56.457Z,2.60
2022-09-01T05:47:55.380Z,4.60
2022-09-01T05:48:55.395Z,3.80
2022-09-01T05:49:55.426Z,3.10
2022-09-01T05:50:55.327Z,3.20
2022-09-01T05:51:55.346Z,3.30
2022-09-01T05:52:55.304Z,3.60
2022-09-01T05:54:16.322Z,3.70
2022-09-01T05:54:55.290Z,3.30
2022-09-01T05:55:55.898Z,3.40
2022-09-01T05:56:55.276Z,3.00
2022-09-01T05:57:55.238Z,2.60
2022-09-01T05:59:56.260Z,2.90
2022-09-01T06:00:55.195Z,2.90
2022-09-01T06:01:55.361Z,3.00
2022-09-01T06:02:55.302Z,2.90
2022-09-01T06:03:55.194Z,3.00
2022-09-01T06:04:55.200Z,2.70
2022-09-01T06:05:55.140Z,2.80
2022-09-01T06:07:06.973Z,2.60
2022-09-01T06:07:56.099Z,3.00
2022-09-01T06:08:55.083Z,2.80
2022-09-01T06:10:16.069Z,2.70
2022-09-01T06:10:55.090Z,2.60
2022-09-01T06:11:55.040Z,2.60
2022-09-01T06:12:55.030Z,2.80
2022-09-01T06:13:55.475Z,2.90
2022-09-01T06:15:02.656Z,2.70
2022-09-01T06:15:55.067Z,2.90
2022-09-01T06:16:54.979Z,2.70
2022-09-01T06:17:54.960Z,2.60
2022-09-01T06:18:54.956Z,2.80
2022-09-01T06:19:54.931Z,2.70
2022-09-01T06:20:54.930Z,2.60
2022-09-01T06:21:54.948Z,2.60
2022-09-01T06:22:54.896Z,2.80
2022-09-01T06:23:54.877Z,2.70
2022-09-01T06:24:58.244Z,2.70
2022-09-01T06:26:16.881Z,3.80
2022-09-01T06:26:54.833Z,3.60
2022-09-01T06:27:54.972Z,2.70
2022-09-01T06:28:54.814Z,2.60
2022-09-01T06:29:54.800Z,2.80
2022-09-01T06:30:54.791Z,2.80
2022-09-01T06:31:54.804Z,2.40
2022-09-01T06:32:54.782Z,2.70
2022-09-01T06:33:54.754Z,2.60
2022-09-01T06:34:55.779Z,2.60
2022-09-01T06:35:55.206Z,2.90
2022-09-01T06:37:16.666Z,3.80
2022-09-01T06:37:55.454Z,3.00
2022-09-01T06:38:54.757Z,2.70
2022-09-01T06:39:55.476Z,2.70
2022-09-01T06:40:55.703Z,2.90
2022-09-01T06:41:54.702Z,2.60
2022-09-01T06:42:54.626Z,2.70
2022-09-01T06:43:54.612Z,2.50
2022-09-01T06:44:54.636Z,2.40
2022-09-01T06:45:55.015Z,2.60
2022-09-01T06:46:54.697Z,2.40
2022-09-01T06:48:15.593Z,2.20
2022-09-01T06:48:54.566Z,2.40
2022-09-01T06:49:57.834Z,2.50
2022-09-01T06:51:55.535Z,2.80
2022-09-01T06:53:55.488Z,2.40
2022-09-01T06:54:55.053Z,2.40
2022-09-01T06:55:54.455Z,2.80
2022-09-01T06:56:54.459Z,2.20
2022-09-01T06:58:09.760Z,2.50
2022-09-01T06:58:55.398Z,2.30
2022-09-01T06:59:54.453Z,2.40
2022-09-01T07:00:54.376Z,2.10
2022-09-01T07:02:01.438Z,2.40
2022-09-01T07:02:55.406Z,2.40
2022-09-01T07:03:54.368Z,2.50
2022-09-01T07:04:54.323Z,2.60
2022-09-01T07:06:02.453Z,2.70
2022-09-01T07:08:04.561Z,2.50
2022-09-01T07:08:05.223Z,2.70
2022-09-01T07:10:17.712Z,2.60
2022-09-01T07:12:25.475Z,2.40
2022-09-01T07:13:10.630Z,2.30
2022-09-01T07:14:16.315Z,2.40
2022-09-01T07:17:23.207Z,2.40
2022-09-01T07:17:55.152Z,2.30
2022-09-01T07:19:00.813Z,2.70
2022-09-01T07:19:55.135Z,2.30
2022-09-01T07:21:36.561Z,2.50
2022-09-01T07:23:10.452Z,2.10
2022-09-01T07:24:11.370Z,2.70
2022-09-01T07:25:12.056Z,2.10
2022-09-01T07:26:04.465Z,2.00
2022-09-01T07:26:55.074Z,2.20
2022-09-01T07:27:54.004Z,1.90
2022-09-01T07:29:04.351Z,2.20
2022-09-01T07:29:54.985Z,2.00
2022-09-01T07:30:54.007Z,2.30
2022-09-01T07:32:43.711Z,2.00
2022-09-01T07:32:54.966Z,1.90
2022-09-01T07:33:54.307Z,2.20
2022-09-01T07:35:14.925Z,2.00
2022-09-01T07:39:55.464Z,1.90
2022-09-01T07:42:56.480Z,2.50
2022-09-01T07:43:54.808Z,1.90
2022-09-01T07:44:53.778Z,2.20
2022-09-01T07:46:36.499Z,1.80
2022-09-01T07:47:54.908Z,2.20
2022-09-01T07:50:24.155Z,2.10
2022-09-01T07:51:54.742Z,2.10
2022-09-01T07:52:53.729Z,1.90
2022-09-01T07:53:53.662Z,1.90
2022-09-01T07:54:53.649Z,2.00
2022-09-01T07:55:53.868Z,2.20
2022-09-01T07:56:53.644Z,2.30
2022-09-01T07:57:53.618Z,2.40
2022-09-01T07:58:53.626Z,2.90
2022-09-01T07:59:53.574Z,2.80
2022-09-01T08:00:53.595Z,2.60
2022-09-01T08:02:14.674Z,2.00
2022-09-01T08:02:57.037Z,1.80
2022-09-01T08:03:53.540Z,2.20
2022-09-01T08:04:53.530Z,2.10
2022-09-01T08:05:53.524Z,1.90
2022-09-01T08:06:53.485Z,2.00
2022-09-01T08:07:53.485Z,2.10
2022-09-01T08:08:56.984Z,2.10
2022-09-01T08:09:55.999Z,1.90
2022-09-01T08:10:54.587Z,2.70
2022-09-01T08:12:08.783Z,1.80
2022-09-01T08:13:15.750Z,1.70
2022-09-01T08:13:53.406Z,1.80
2022-09-01T08:16:17.005Z,1.90
2022-09-01T08:16:54.434Z,2.00
2022-09-01T08:17:53.436Z,1.90
2022-09-01T08:18:53.393Z,1.70
2022-09-01T08:19:53.310Z,2.00
2022-09-01T08:20:53.455Z,1.70
2022-09-01T08:21:53.286Z,2.10
2022-09-01T08:22:53.277Z,2.50
2022-09-01T08:23:53.309Z,1.80
2022-09-01T08:24:53.259Z,1.70
2022-09-01T08:25:53.261Z,1.50
2022-09-01T08:26:53.217Z,1.70
2022-09-01T08:27:59.823Z,1.80
2022-09-01T08:28:55.611Z,5.50
2022-09-01T08:29:53.171Z,4.10
2022-09-01T08:30:53.216Z,2.70
2022-09-01T08:31:53.162Z,2.60
2022-09-01T08:32:53.140Z,2.40
2022-09-01T08:33:53.112Z,2.10
2022-09-01T08:34:53.103Z,2.30
2022-09-01T08:35:54.024Z,2.30
2022-09-01T08:36:53.072Z,1.90
2022-09-01T08:37:54.165Z,2.20
2022-09-01T08:38:53.063Z,1.80
2022-09-01T08:40:14.090Z,2.80
2022-09-01T08:40:56.293Z,2.60
2022-09-01T08:41:53.024Z,2.10
2022-09-01T08:42:52.994Z,1.70
2022-09-01T08:43:53.011Z,2.50
2022-09-01T08:44:52.965Z,2.30
2022-09-01T08:45:53.052Z,2.40
2022-09-01T08:46:53.394Z,1.90
2022-09-01T08:48:22.417Z,2.40
2022-09-01T08:49:53.905Z,1.90
2022-09-01T08:51:17.143Z,1.40
2022-09-01T08:51:53.874Z,1.70
2022-09-01T08:52:53.029Z,1.50
2022-09-01T08:53:52.846Z,1.50
2022-09-01T08:54:52.837Z,1.40
2022-09-01T08:55:52.837Z,1.70
2022-09-01T08:56:52.805Z,1.50
2022-09-01T08:57:57.140Z,1.60
2022-09-01T08:58:54.298Z,1.70
2022-09-01T08:59:52.760Z,1.30
2022-09-01T09:00:54.850Z,1.60
2022-09-01T09:01:52.740Z,1.50
2022-09-01T09:02:52.789Z,2.50
2022-09-01T09:03:52.739Z,1.60
2022-09-01T09:04:52.732Z,1.60
2022-09-01T09:05:52.672Z,1.60
2022-09-01T09:06:52.748Z,1.40
2022-09-01T09:07:52.692Z,1.40
2022-09-01T09:08:52.640Z,1.20
2022-09-01T09:09:54.223Z,1.40
2022-09-01T09:10:52.652Z,1.40
2022-09-01T09:11:52.648Z,1.30
2022-09-01T09:13:13.581Z,1.40
2022-09-01T09:13:52.573Z,1.30
2022-09-01T09:14:52.574Z,1.20
2022-09-01T09:15:52.657Z,1.40
2022-09-01T09:16:53.802Z,1.30
2022-09-01T09:17:59.018Z,1.20
2022-09-01T09:18:55.169Z,1.30
2022-09-01T09:19:52.553Z,1.40
2022-09-01T09:20:52.558Z,1.20
2022-09-01T09:21:52.535Z,1.10
2022-09-01T09:22:52.447Z,1.20
2022-09-01T09:23:52.435Z,1.40
2022-09-01T09:24:52.703Z,1.60
2022-09-01T09:25:52.473Z,1.50
2022-09-01T09:26:52.435Z,1.50
2022-09-01T09:28:00.408Z,1.40
2022-09-01T09:28:53.377Z,1.40
2022-09-01T09:29:52.395Z,1.40
2022-09-01T09:30:52.411Z,1.10
2022-09-01T09:31:52.348Z,1.20
2022-09-01T09:33:25.111Z,1.30
2022-09-01T09:33:54.005Z,1.30
2022-09-01T09:34:52.279Z,1.20
2022-09-01T09:35:52.338Z,1.30
2022-09-01T09:36:55.334Z,1.20
2022-09-01T09:37:52.249Z,1.20
2022-09-01T09:38:52.270Z,1.40
2022-09-01T09:39:52.219Z,1.00
2022-09-01T09:41:13.875Z,1.20
2022-09-01T09:41:53.237Z,1.20
2022-09-01T09:42:52.190Z,1.10
2022-09-01T09:43:52.187Z,1.60
2022-09-01T09:45:13.174Z,1.50
2022-09-01T09:45:52.160Z,1.70
2022-09-01T09:46:52.218Z,1.50
2022-09-01T09:47:52.114Z,1.70
2022-09-01T09:48:52.104Z,1.60
2022-09-01T09:49:52.092Z,1.40
2022-09-01T09:50:52.106Z,2.00
2022-09-01T09:51:52.094Z,1.80
2022-09-01T09:52:52.046Z,2.00
2022-09-01T09:53:52.035Z,1.80
2022-09-01T09:54:52.037Z,1.80
2022-09-01T09:56:13.043Z,1.60
2022-09-01T09:56:52.004Z,1.80
2022-09-01T09:57:52.015Z,1.50
2022-09-01T09:58:51.991Z,1.70
2022-09-01T09:59:59.239Z,1.50
2022-09-01T10:00:52.967Z,1.30
2022-09-01T10:01:51.953Z,1.50
2022-09-01T10:02:51.906Z,1.20
2022-09-01T10:03:51.926Z,1.40
2022-09-01T10:04:55.701Z,1.30
2022-09-01T10:05:51.869Z,1.60
2022-09-01T10:06:51.874Z,1.40
2022-09-01T10:07:51.847Z,1.20
2022-09-01T10:08:51.829Z,1.40
2022-09-01T10:09:51.810Z,1.30
2022-09-01T10:10:57.545Z,1.20
2022-09-01T10:12:13.818Z,1.50
2022-09-01T10:12:51.790Z,1.40
2022-09-01T10:13:51.770Z,1.30
2022-09-01T10:14:53.392Z,1.40
2022-09-01T10:15:51.749Z,1.60
2022-09-01T10:16:52.336Z,1.40
2022-09-01T10:17:51.904Z,1.40
2022-09-01T10:18:51.691Z,1.50
2022-09-01T10:19:51.688Z,1.60
2022-09-01T10:20:51.663Z,1.40
2022-09-01T10:21:51.720Z,1.30
2022-09-01T10:23:15.166Z,1.40
2022-09-01T10:23:51.632Z,1.40
2022-09-01T10:24:51.613Z,1.30
2022-09-01T10:25:51.621Z,1.60
2022-09-01T10:26:51.646Z,1.30
2022-09-01T10:27:54.962Z,1.70
2022-09-01T10:28:51.555Z,1.30
2022-09-01T10:30:12.212Z,1.30
2022-09-01T10:30:52.582Z,1.30
2022-09-01T10:31:59.425Z,1.40
2022-09-01T10:32:55.652Z,1.60
2022-09-01T10:33:51.511Z,1.60
2022-09-01T10:34:51.506Z,1.20
2022-09-01T10:35:51.509Z,1.40
2022-09-01T10:36:55.806Z,1.50
2022-09-01T10:37:52.447Z,1.30
2022-09-01T10:39:12.451Z,1.50
2022-09-01T10:39:51.636Z,1.40
2022-09-01T10:40:51.504Z,1.30
2022-09-01T10:42:00.728Z,1.50
2022-09-01T10:42:52.408Z,1.90
2022-09-01T10:43:51.370Z,1.30
2022-09-01T10:44:51.348Z,1.50
2022-09-01T10:45:57.662Z,1.40
2022-09-01T10:46:52.502Z,1.20
2022-09-01T10:47:51.383Z,1.40
2022-09-01T10:48:55.834Z,1.60
2022-09-01T10:49:52.302Z,2.20
2022-09-01T10:50:51.265Z,1.80
2022-09-01T10:51:55.134Z,1.40
2022-09-01T10:52:53.729Z,1.40
2022-09-01T10:53:51.331Z,1.40
2022-09-01T10:55:12.222Z,1.30
2022-09-01T10:55:51.192Z,1.40
2022-09-01T10:56:51.717Z,1.30
2022-09-01T10:57:51.176Z,1.30
2022-09-01T10:59:56.387Z,1.40
2022-09-01T11:01:52.292Z,1.30
2022-09-01T11:02:51.176Z,1.50
2022-09-01T11:03:51.716Z,1.20
2022-09-01T11:04:51.214Z,1.30
2022-09-01T11:05:52.742Z,1.90
2022-09-01T11:08:01.294Z,1.90
2022-09-01T11:08:52.039Z,1.80
2022-09-01T11:09:56.645Z,1.30
2022-09-01T11:10:52.009Z,1.50
2022-09-01T11:11:51.009Z,1.20
2022-09-01T11:12:50.983Z,1.40
2022-09-01T11:13:51.014Z,1.40
2022-09-01T11:14:50.950Z,1.30
2022-09-01T11:15:50.971Z,1.40
2022-09-01T11:16:50.978Z,2.40
2022-09-01T11:17:50.921Z,3.90
2022-09-01T11:18:50.909Z,1.90
2022-09-01T11:19:50.902Z,1.40
2022-09-01T11:20:50.904Z,1.40
2022-09-01T11:22:13.098Z,1.40
2022-09-01T11:22:51.071Z,1.40
2022-09-01T11:23:51.085Z,1.50
2022-09-01T11:24:55.897Z,1.40
2022-09-01T11:26:51.856Z,1.50
2022-09-01T11:27:50.799Z,1.30
2022-09-01T11:28:50.803Z,1.30
2022-09-01T11:29:50.779Z,1.30
2022-09-01T11:30:50.798Z,1.30
2022-09-01T11:31:50.832Z,2.30
2022-09-01T11:32:50.727Z,1.80
2022-09-01T11:33:50.732Z,1.30
2022-09-01T11:34:50.698Z,1.60
2022-09-01T11:35:50.690Z,1.30
2022-09-01T11:36:50.700Z,1.30
2022-09-01T11:38:11.680Z,1.20
2022-09-01T11:38:50.655Z,1.30
2022-09-01T11:39:50.641Z,1.60
2022-09-01T11:40:50.665Z,1.70
2022-09-01T11:41:54.515Z,1.60
2022-09-01T11:42:51.602Z,4.10
2022-09-01T11:43:50.584Z,1.70
2022-09-01T11:44:50.597Z,1.60
2022-09-01T11:45:50.632Z,1.40
2022-09-01T11:46:50.583Z,1.40
2022-09-01T11:47:50.533Z,1.70
2022-09-01T11:49:11.533Z,1.20
2022-09-01T11:49:50.525Z,1.30
2022-09-01T11:50:50.495Z,1.50
2022-09-01T11:51:50.526Z,1.30
2022-09-01T11:52:50.480Z,1.40
2022-09-01T11:53:50.483Z,1.50
2022-09-01T11:54:50.449Z,1.50
2022-09-01T11:55:50.454Z,1.70
2022-09-01T11:56:50.452Z,2.20
2022-09-01T11:57:50.418Z,1.30
2022-09-01T11:58:50.398Z,1.20
2022-09-01T12:00:11.389Z,1.30
2022-09-01T12:00:50.379Z,1.30
2022-09-01T12:01:50.421Z,1.30
2022-09-01T12:02:50.456Z,1.10
2022-09-01T12:03:50.340Z,1.20
2022-09-01T12:04:50.345Z,1.00
2022-09-01T12:05:50.311Z,1.20
2022-09-01T12:06:50.331Z,1.10
2022-09-01T12:07:50.294Z,1.20
2022-09-01T12:08:50.282Z,1.10
2022-09-01T12:09:50.264Z,1.30
2022-09-01T12:11:11.273Z,1.20
2022-09-01T12:11:50.252Z,1.20
2022-09-01T12:12:50.236Z,1.50
2022-09-01T12:13:50.214Z,1.40
2022-09-01T12:15:05.221Z,1.50
2022-09-01T12:16:16.341Z,1.40
2022-09-01T12:16:51.251Z,1.20
2022-09-01T12:17:50.166Z,2.30
2022-09-01T12:18:50.157Z,1.70
2022-09-01T12:19:50.148Z,1.60
2022-09-01T12:21:51.893Z,1.40
2022-09-01T12:22:50.098Z,1.50
2022-09-01T12:23:50.098Z,1.50
2022-09-01T12:24:50.113Z,1.90
2022-09-01T12:25:50.070Z,1.60
2022-09-01T12:27:11.079Z,1.40
2022-09-01T12:27:50.043Z,1.40
2022-09-01T12:28:50.038Z,1.20
2022-09-01T12:29:50.018Z,1.30
2022-09-01T12:30:50.023Z,1.40
2022-09-01T12:31:50.055Z,1.30
2022-09-01T12:32:50.028Z,1.40
2022-09-01T12:33:49.963Z,1.30
2022-09-01T12:34:49.962Z,1.50
2022-09-01T12:35:49.944Z,1.40
2022-09-01T12:36:49.956Z,1.40
2022-09-01T12:38:10.924Z,1.30
2022-09-01T12:38:49.911Z,1.30
2022-09-01T12:39:49.905Z,1.40
2022-09-01T12:40:49.901Z,1.30
2022-09-01T12:41:49.898Z,1.40
2022-09-01T12:42:49.866Z,1.20
2022-09-01T12:43:54.608Z,1.30
2022-09-01T12:44:50.839Z,1.30
2022-09-01T12:45:49.846Z,1.40
2022-09-01T12:46:49.837Z,1.30
2022-09-01T12:47:50.522Z,1.10
2022-09-01T12:49:10.863Z,1.40
2022-09-01T12:49:52.067Z,1.20
2022-09-01T12:50:49.760Z,1.20
2022-09-01T12:51:49.761Z,1.10
2022-09-01T12:52:49.940Z,1.50
2022-09-01T12:53:49.712Z,1.60
2022-09-01T12:54:49.712Z,1.60
2022-09-01T12:55:49.690Z,3.10
2022-09-01T12:56:49.703Z,2.10
2022-09-01T12:57:49.672Z,1.70
2022-09-01T12:58:49.653Z,1.70
2022-09-01T12:59:49.645Z,1.40
2022-09-01T13:00:49.719Z,1.40
2022-09-01T13:01:50.794Z,1.40
2022-09-01T13:02:49.745Z,1.30
2022-09-01T13:03:49.585Z,1.50
2022-09-01T13:04:49.576Z,1.70
2022-09-01T13:05:49.967Z,2.70
2022-09-01T13:06:49.767Z,1.90
2022-09-01T13:07:49.606Z,1.40
2022-09-01T13:08:49.527Z,1.50
2022-09-01T13:09:49.508Z,2.30
2022-09-01T13:11:11.365Z,2.70
2022-09-01T13:12:06.621Z,1.70
2022-09-01T13:12:50.478Z,1.50
2022-09-01T13:13:49.459Z,1.50
2022-09-01T13:14:49.439Z,1.50
2022-09-01T13:15:49.453Z,2.50
2022-09-01T13:16:49.464Z,2.20
2022-09-01T13:17:49.410Z,1.70
2022-09-01T13:19:50.391Z,2.10
2022-09-01T13:20:49.372Z,2.10
2022-09-01T13:22:10.499Z,2.70
2022-09-01T13:22:49.343Z,2.50
2022-09-01T13:23:49.322Z,2.00
2022-09-01T13:24:49.322Z,1.70
2022-09-01T13:25:49.307Z,2.70
2022-09-01T13:27:20.295Z,2.00
2022-09-01T13:27:50.275Z,1.70
2022-09-01T13:28:49.264Z,1.60
2022-09-01T13:29:49.260Z,3.30
2022-09-01T13:30:49.272Z,2.30
2022-09-01T13:34:50.734Z,1.70
2022-09-01T13:35:49.166Z,1.60
2022-09-01T13:36:52.516Z,1.40
2022-09-01T13:38:10.147Z,1.50
2022-09-01T13:38:50.624Z,1.30
2022-09-01T13:39:49.122Z,1.60
2022-09-01T13:40:49.180Z,1.40
2022-09-01T13:41:49.118Z,1.40
2022-09-01T13:42:49.587Z,1.60
2022-09-01T13:43:49.295Z,1.40
2022-09-01T13:44:52.534Z,1.70
2022-09-01T13:45:51.434Z,1.60
2022-09-01T13:49:42.192Z,1.70
2022-09-01T13:50:06.954Z,1.80
2022-09-01T13:51:49.993Z,1.80
2022-09-01T13:52:55.001Z,1.70
2022-09-01T13:54:10.934Z,1.50
2022-09-01T13:54:48.932Z,1.60
2022-09-01T13:55:48.959Z,1.40
2022-09-01T13:56:48.924Z,1.50
2022-09-01T13:57:51.544Z,1.80
2022-09-01T13:58:48.868Z,1.60
2022-09-01T13:59:48.855Z,1.50
2022-09-01T14:00:48.948Z,1.40
2022-09-01T14:01:48.855Z,1.40
2022-09-01T14:02:48.818Z,1.50
2022-09-01T14:03:51.851Z,1.70
2022-09-01T14:05:09.790Z,1.80
2022-09-01T14:05:49.787Z,1.30
2022-09-01T14:06:48.802Z,2.10
2022-09-01T14:07:48.747Z,1.90
2022-09-01T14:08:48.738Z,1.70
2022-09-01T14:09:48.732Z,1.40
2022-09-01T14:10:48.712Z,1.40
2022-09-01T14:11:48.719Z,1.70
2022-09-01T14:12:48.923Z,1.50
2022-09-01T14:13:48.671Z,1.40
2022-09-01T14:15:49.648Z,1.50
2022-09-01T14:16:48.751Z,4.70
2022-09-01T14:17:48.621Z,2.80
2022-09-01T14:18:48.632Z,1.60
2022-09-01T14:19:48.656Z,1.50
2022-09-01T14:20:48.694Z,1.60
2022-09-01T14:21:48.638Z,1.30
2022-09-01T14:22:48.572Z,1.40
2022-09-01T14:23:48.552Z,3.10
2022-09-01T14:24:48.579Z,1.60
2022-09-01T14:26:09.517Z,2.60
2022-09-01T14:26:48.594Z,2.10
2022-09-01T14:27:48.506Z,2.00
2022-09-01T14:28:48.487Z,1.70
2022-09-01T14:30:18.968Z,2.60
2022-09-01T14:31:18.931Z,2.50
2022-09-01T14:32:18.919Z,2.20
2022-09-01T14:33:18.922Z,2.30
2022-09-01T14:34:18.878Z,2.00
2022-09-01T14:35:18.876Z,1.40
2022-09-01T14:36:39.843Z,1.40
2022-09-01T14:37:18.859Z,1.60
2022-09-01T14:38:18.937Z,1.50
2022-09-01T14:39:18.817Z,1.80
2022-09-01T14:40:18.848Z,4.00
2022-09-01T14:41:18.803Z,2.30
2022-09-01T14:42:18.795Z,2.00
2022-09-01T14:43:18.814Z,2.50
2022-09-01T14:44:18.775Z,2.40
2022-09-01T14:45:18.816Z,2.90
2022-09-01T14:46:18.757Z,1.90
2022-09-01T14:47:19.742Z,1.80
2022-09-01T14:48:18.713Z,1.60
2022-09-01T14:49:22.187Z,4.20
2022-09-01T14:50:21.909Z,1.70
2022-09-01T14:51:18.666Z,1.60
2022-09-01T14:52:18.682Z,1.60
2022-09-01T14:53:18.680Z,1.70
2022-09-01T14:54:18.610Z,1.70
2022-09-01T14:55:18.598Z,2.00
2022-09-01T14:56:18.589Z,1.80
2022-09-01T14:57:37.729Z,1.70
2022-09-01T14:58:40.559Z,1.70
2022-09-01T14:59:18.551Z,1.80
2022-09-01T15:00:18.545Z,1.90
2022-09-01T15:01:33.814Z,1.50
2022-09-01T15:02:19.535Z,1.80
2022-09-01T15:03:22.692Z,2.50
2022-09-01T15:04:18.484Z,2.00
2022-09-01T15:05:18.474Z,1.80
2022-09-01T15:06:18.473Z,1.80
2022-09-01T15:07:18.444Z,1.70
2022-09-01T15:08:18.588Z,1.70
2022-09-01T15:09:19.232Z,1.60
2022-09-01T15:10:24.968Z,1.70
2022-09-01T15:11:19.419Z,1.70
2022-09-01T15:12:18.377Z,2.40
2022-09-01T15:13:18.399Z,1.90
2022-09-01T15:14:39.356Z,1.80
2022-09-01T15:15:18.338Z,3.40
2022-09-01T15:16:18.360Z,1.60
2022-09-01T15:17:18.317Z,2.20
2022-09-01T15:18:18.330Z,1.70
2022-09-01T15:19:18.286Z,1.60
2022-09-01T15:20:18.277Z,1.70
2022-09-01T15:21:18.279Z,1.60
2022-09-01T15:22:18.255Z,1.80
2022-09-01T15:23:18.236Z,1.70
2022-09-01T15:24:18.227Z,1.80
2022-09-01T15:25:18.211Z,4.50
2022-09-01T15:26:18.232Z,2.50
2022-09-01T15:27:18.185Z,2.20
2022-09-01T15:28:18.259Z,1.70
2022-09-01T15:29:18.158Z,1.90
2022-09-01T15:30:18.162Z,3.20
2022-09-01T15:31:18.259Z,5.20
2022-09-01T15:32:22.058Z,4.00
2022-09-01T15:33:19.166Z,2.30
2022-09-01T15:34:18.095Z,2.00
2022-09-01T15:35:18.081Z,3.00
2022-09-01T15:36:39.095Z,2.10
2022-09-01T15:37:18.074Z,2.10
2022-09-01T15:38:18.352Z,1.90
2022-09-01T15:39:18.034Z,1.70
2022-09-01T15:40:18.916Z,2.60
2022-09-01T15:41:20.334Z,2.50
2022-09-01T15:42:19.471Z,2.00
2022-09-01T15:43:21.271Z,1.50
2022-09-01T15:44:19.110Z,1.80
2022-09-01T15:45:20.472Z,1.90
2022-09-01T15:46:20.987Z,1.90
2022-09-01T15:47:20.081Z,1.80
2022-09-01T15:48:19.510Z,2.30
2022-09-01T15:49:19.135Z,2.20
2022-09-01T15:50:22.050Z,2.30
2022-09-01T15:51:22.938Z,2.40
2022-09-01T15:52:20.491Z,2.30
2022-09-01T15:53:19.100Z,2.00
2022-09-01T15:54:20.090Z,2.40
2022-09-01T15:55:18.981Z,3.40
2022-09-01T15:56:18.817Z,3.00
2022-09-01T15:57:17.831Z,2.80
2022-09-01T15:58:17.781Z,3.10
2022-09-01T15:59:17.779Z,2.70
2022-09-01T16:00:17.782Z,1.90
2022-09-01T16:01:17.862Z,1.70
2022-09-01T16:02:38.752Z,1.70
2022-09-01T16:03:17.717Z,1.70
2022-09-01T16:04:20.865Z,1.60
2022-09-01T16:05:18.693Z,1.70
2022-09-01T16:06:17.785Z,1.70
2022-09-01T16:07:17.761Z,1.70
2022-09-01T16:08:18.986Z,1.80
2022-09-01T16:09:18.758Z,1.70
2022-09-01T16:10:17.685Z,1.70
2022-09-01T16:11:17.795Z,1.60
2022-09-01T16:12:17.606Z,1.80
2022-09-01T16:13:17.584Z,1.80
